Wallblake, Anguilla

12:09 AM AST on September 03, 2014 (GMT -0400)
West End, Anguilla | Change Station
CLOSE
Current Station
Personal Weather Station
Location: Anguilla,
Elevation: 46 ft
Nearby Weather Stations

Elev 46 ft 18.17 °N, 63.15 °W | Updated 39 minutes ago

Mostly Cloudy
Mostly Cloudy
81.1 °F
Feels Like 87 °F
N
7.0
Wind Variable Wind from ENE
Gusts 10.0 mph

Today
High -- | Low -- °F
--% Chance of Precip.
Yesterday
High -- | Low -- °F
Precip. -- in
5:58 AM 6:24 PM
First Quarter, 58% visible
Pressure 30.01 in
Visibility 6.2 miles
Clouds Mostly Cloudy 1800 ft
Heat Index 87 °F
Dew Point 75 °F
Humidity 83%
Rainfall 0.03 in
Snow Depth Not available.
UV 0 out of 12
Pollen Not available.
Air Quality Not available.
Flu Activity Not available.
METAR TNCM 030300Z 08008KT 050V140 9999 BKN018TCU 28/24 Q1016 A3001

More Conditions Fewer Conditions

Pressure 30.01 in
Visibility 6.2 miles
Clouds Mostly Cloudy 1800 ft
Heat Index 87 °F
Dew Point 75 °F
Humidity 83%
Rainfall 0.03 in
Snow Depth Not available.
UV 0 out of 12
Pollen Not available.
Air Quality Not available.
Flu Activity Not available.
METAR TNCM 030300Z 08008KT 050V140 9999 BKN018TCU 28/24 Q1016 A3001

More Conditions Fewer Conditions

10-Day Weather Forecast

Almanac

Astronomy

Sep. 03, 2014 Rise Set
Actual Time 5:58 AM AST 6:24 PM AST
Civil Twilight 5:36 AM AST 6:46 PM AST
Nautical Twilight 5:10 AM AST 7:12 PM AST
Astronomical Twilight 4:44 AM AST 7:38 PM AST
Moon 1:36 PM AST 12:13 AM AST
Length of Visible Light 13h 10m
Length of Day
12h 26m
Tomorrow will be 0m 59s shorter.
First Quarter, 58% of the Moon is Illuminated
Today
First Quarter
Sep 8
Full
Sep 15
Last Quarter
Sep 24
New
Oct 1
First Quarter

Yesterday's Extremes

Country Highs Country Lows

Community

WunderPhotos

Upload Photos

1,749,866 photos uploaded!

Nearby

Snow Depth

Not available.

Earthquake Activity

City Distance Mag. Time & Date
No recent earthquake activity has been reported nearby.
Minimum magnitude displayed is 2.5.

Coastal Water Temperatures

Place Temperature
No Stations Reporting

Nearby Weather Stations